Time;durP1;ratioP1;P1;durP2;ratioP2;P2;SDS_P1;SDS_P2;PMS_P1;PMS_P2;Temp;Humidity;BMP_temperature;BMP_pressure;BME280_temperature;BME280_humidity;BME280_pressure;Samples;Min_cycle;Max_cycle;Signal;HPM_P1;HPM_P2
2023/05/17 00:01:33;;;;;;;14.57;4.07;;;9.90;99.90;;;;;;5053805;28;20055;-60
2023/05/17 00:03:59;;;;;;;20.45;4.85;;;9.90;99.90;;;;;;5071896;28;20040;-62
2023/05/17 00:06:25;;;;;;;13.35;3.90;;;9.90;99.90;;;;;;5071659;28;20040;-60
2023/05/17 00:08:50;;;;;;;16.88;4.07;;;9.90;99.90;;;;;;5071642;28;20487;-60
2023/05/17 00:11:16;;;;;;;12.27;3.78;;;9.80;99.90;;;;;;5071598;28;20039;-60
2023/05/17 00:13:42;;;;;;;13.85;3.85;;;9.80;99.90;;;;;;5071356;28;20048;-60
2023/05/17 00:16:07;;;;;;;18.05;4.65;;;9.90;99.90;;;;;;5071596;28;20033;-60
2023/05/17 00:18:33;;;;;;;18.83;4.40;;;9.90;99.90;;;;;;5071367;28;20072;-58
2023/05/17 00:20:59;;;;;;;15.77;5.10;;;9.80;99.90;;;;;;5070484;28;20043;-59
2023/05/17 00:23:24;;;;;;;16.10;3.92;;;9.90;99.90;;;;;;5053747;28;20028;-58
2023/05/17 00:25:50;;;;;;;21.38;4.43;;;9.90;99.90;;;;;;5071139;28;20048;-58
2023/05/17 00:28:16;;;;;;;18.30;4.68;;;9.90;99.90;;;;;;5070690;28;20098;-61
2023/05/17 00:30:42;;;;;;;10.80;3.67;;;9.90;99.90;;;;;;5071376;28;20051;-58
2023/05/17 00:33:07;;;;;;;15.68;4.57;;;9.90;99.90;;;;;;5071078;28;20036;-59
2023/05/17 00:35:33;;;;;;;21.88;5.18;;;9.90;99.90;;;;;;5071169;28;20480;-60
2023/05/17 00:37:59;;;;;;;20.58;4.50;;;9.90;99.90;;;;;;5070914;28;20032;-60
2023/05/17 00:40:25;;;;;;;21.20;4.45;;;9.90;99.90;;;;;;5070688;28;20076;-59
2023/05/17 00:42:51;;;;;;;23.15;3.90;;;9.80;99.90;;;;;;5070764;28;20029;-58
2023/05/17 00:45:16;;;;;;;22.55;3.95;;;9.70;99.90;;;;;;5070733;28;20074;-59
2023/05/17 00:47:42;;;;;;;25.40;3.53;;;9.70;99.90;;;;;;5070903;28;20399;-59
2023/05/17 00:50:08;;;;;;;18.60;3.28;;;9.60;99.90;;;;;;5070779;28;20078;-59
2023/05/17 00:52:37;;;;;;;21.25;4.30;;;9.60;99.90;;;;;;5070816;28;20174;-59
2023/05/17 00:55:03;;;;;;;14.15;2.75;;;9.50;99.90;;;;;;5070985;28;20043;-60
2023/05/17 00:57:30;;;;;;;14.45;3.58;;;9.50;99.90;;;;;;5070412;28;20037;-60
2023/05/17 00:59:56;;;;;;;19.02;3.47;;;9.40;99.90;;;;;;5068385;28;20087;-59
2023/05/17 01:02:22;;;;;;;12.63;3.22;;;9.30;99.90;;;;;;5070990;28;20508;-58
2023/05/17 01:04:48;;;;;;;19.42;3.53;;;9.30;99.90;;;;;;5070481;28;20037;-61
2023/05/17 01:07:15;;;;;;;22.73;3.28;;;9.20;99.90;;;;;;5053249;28;20097;-59
2023/05/17 01:09:41;;;;;;;23.08;4.25;;;9.10;99.90;;;;;;5070512;28;20032;-59
2023/05/17 01:12:34;;;;;;;20.45;3.42;;;9.00;99.90;;;;;;5070476;28;20043;-60
2023/05/17 01:15:17;;;;;;;23.47;3.40;;;8.90;99.90;;;;;;5070941;28;20465;-61
2023/05/17 01:17:57;;;;;;;19.17;3.00;;;8.90;99.90;;;;;;5070295;28;20071;-61
2023/05/17 01:20:27;;;;;;;16.33;3.05;;;8.80;99.90;;;;;;5070497;28;20435;-59
2023/05/17 01:23:05;;;;;;;18.20;2.95;;;8.70;99.90;;;;;;5052538;28;20465;-61
2023/05/17 01:25:55;;;;;;;16.17;3.10;;;8.60;99.90;;;;;;5070598;28;20036;-61
2023/05/17 01:28:23;;;;;;;13.48;2.97;;;8.60;99.90;;;;;;5051718;28;20053;-58
2023/05/17 01:30:50;;;;;;;20.70;3.75;;;8.50;99.90;;;;;;5070017;28;20056;-59
2023/05/17 01:33:18;;;;;;;16.48;3.58;;;8.50;99.90;;;;;;5070713;28;20446;-61
2023/05/17 01:35:44;;;;;;;19.83;3.67;;;8.40;99.90;;;;;;5070143;28;20046;-61
2023/05/17 01:38:09;;;;;;;19.85;4.07;;;8.30;99.90;;;;;;5070479;28;20119;-61
2023/05/17 01:40:43;;;;;;;18.60;2.70;;;8.30;99.90;;;;;;5052032;28;20171;-59
2023/05/17 01:43:25;;;;;;;25.57;3.53;;;8.20;99.90;;;;;;5070059;28;20059;-63
2023/05/17 01:46:17;;;;;;;18.50;2.78;;;8.20;99.90;;;;;;5052552;28;20283;-59
2023/05/17 01:48:53;;;;;;;21.42;2.85;;;8.10;99.90;;;;;;5070210;28;20039;-60
2023/05/17 01:51:21;;;;;;;14.00;3.05;;;8.10;99.90;;;;;;5069945;28;20076;-59
2023/05/17 01:53:56;;;;;;;13.43;2.55;;;8.00;99.90;;;;;;5070307;28;20041;-62
2023/05/17 01:56:29;;;;;;;22.17;3.25;;;8.00;99.90;;;;;;5052107;28;20092;-59
2023/05/17 01:58:58;;;;;;;25.48;3.78;;;8.00;99.90;;;;;;5069921;28;20047;-61
2023/05/17 02:01:27;;;;;;;17.05;3.65;;;8.00;99.90;;;;;;5070054;28;20036;-59
2023/05/17 02:03:53;;;;;;;13.75;2.92;;;7.90;99.90;;;;;;5051871;28;20043;-59
2023/05/17 02:06:18;;;;;;;18.10;2.95;;;7.90;99.90;;;;;;5070002;28;20036;-58
2023/05/17 02:08:44;;;;;;;20.83;3.15;;;7.90;99.90;;;;;;5069978;28;20035;-60
2023/05/17 02:11:10;;;;;;;14.40;3.17;;;7.90;99.90;;;;;;5069641;28;20041;-60
2023/05/17 02:13:35;;;;;;;23.60;3.20;;;7.90;99.90;;;;;;5070263;28;20044;-59
2023/05/17 02:16:02;;;;;;;14.27;3.67;;;7.80;99.90;;;;;;5070159;28;20044;-60
2023/05/17 02:18:28;;;;;;;14.60;3.05;;;7.80;99.90;;;;;;5069826;28;20429;-60
2023/05/17 02:20:54;;;;;;;14.15;2.67;;;7.80;99.90;;;;;;5069889;28;20123;-60
2023/05/17 02:23:20;;;;;;;17.95;3.05;;;7.80;99.90;;;;;;5069684;28;20560;-60
2023/05/17 02:25:46;;;;;;;20.17;3.35;;;7.70;99.90;;;;;;5058326;28;20094;-60
2023/05/17 02:28:12;;;;;;;14.68;3.22;;;7.70;99.90;;;;;;5069511;28;20063;-59
2023/05/17 02:30:40;;;;;;;19.63;3.67;;;7.60;99.90;;;;;;5070089;28;20052;-60
2023/05/17 02:33:07;;;;;;;19.33;3.47;;;7.60;99.90;;;;;;5069890;28;20033;-57
2023/05/17 02:35:33;;;;;;;15.57;2.83;;;7.60;99.90;;;;;;5069685;28;20040;-57
2023/05/17 02:37:58;;;;;;;13.23;2.63;;;7.60;99.90;;;;;;5034752;28;20040;-60
2023/05/17 02:40:24;;;;;;;16.77;2.70;;;7.60;99.90;;;;;;5064027;28;20427;-60
2023/05/17 02:42:50;;;;;;;22.77;3.38;;;7.60;99.90;;;;;;5063592;28;20082;-59
2023/05/17 02:45:16;;;;;;;16.55;3.33;;;7.50;99.90;;;;;;5055206;28;20044;-59
2023/05/17 02:47:42;;;;;;;16.55;2.97;;;7.50;99.90;;;;;;5055212;28;20479;-61
2023/05/17 02:50:08;;;;;;;20.27;3.25;;;7.50;99.90;;;;;;5073269;28;20462;-58
2023/05/17 02:52:34;;;;;;;16.30;3.05;;;7.50;99.90;;;;;;5071932;28;20067;-60
2023/05/17 02:54:59;;;;;;;19.33;2.65;;;7.40;99.90;;;;;;5072441;28;20036;-60
2023/05/17 02:57:25;;;;;;;19.98;3.33;;;7.40;99.90;;;;;;5072512;28;20043;-60
2023/05/17 02:59:51;;;;;;;16.80;2.63;;;7.50;99.90;;;;;;5054898;28;20621;-60
2023/05/17 03:02:16;;;;;;;25.42;3.35;;;7.40;99.90;;;;;;5072586;28;20119;-60
2023/05/17 03:04:42;;;;;;;21.38;3.25;;;7.50;99.90;;;;;;5072971;28;20044;-61
2023/05/17 03:07:08;;;;;;;18.83;3.03;;;7.50;99.90;;;;;;5072525;28;20039;-58
2023/05/17 03:09:34;;;;;;;19.20;2.92;;;7.50;99.90;;;;;;5073525;28;20123;-60
2023/05/17 03:11:59;;;;;;;14.73;2.53;;;7.50;99.90;;;;;;5054611;28;20427;-60
2023/05/17 03:14:25;;;;;;;13.98;3.15;;;7.50;99.90;;;;;;5054622;28;20045;-61
2023/05/17 03:16:51;;;;;;;21.90;3.22;;;7.40;99.90;;;;;;5072531;28;20047;-59
2023/05/17 03:19:16;;;;;;;22.08;3.20;;;7.40;99.90;;;;;;5054804;28;20067;-60
2023/05/17 03:21:42;;;;;;;16.55;3.40;;;7.40;99.90;;;;;;5054515;28;20569;-60
2023/05/17 03:24:08;;;;;;;16.27;2.75;;;7.50;99.90;;;;;;5072418;28;20089;-60
2023/05/17 03:26:33;;;;;;;15.07;2.55;;;7.50;99.90;;;;;;5072621;28;20037;-60
2023/05/17 03:28:59;;;;;;;25.02;2.85;;;7.60;99.90;;;;;;5072028;28;20067;-60
2023/05/17 03:31:25;;;;;;;22.52;3.50;;;7.60;99.90;;;;;;5072474;28;20052;-59
2023/05/17 03:33:51;;;;;;;17.02;2.40;;;7.60;99.90;;;;;;5072210;28;20388;-59
2023/05/17 03:36:16;;;;;;;15.30;2.75;;;7.60;99.90;;;;;;5072473;28;20047;-61
2023/05/17 03:38:42;;;;;;;18.80;2.42;;;7.60;99.90;;;;;;5072235;28;20088;-60
2023/05/17 03:41:08;;;;;;;17.88;3.30;;;7.70;99.90;;;;;;5072489;28;20047;-60
2023/05/17 03:43:33;;;;;;;15.88;2.40;;;7.70;99.90;;;;;;5072334;28;20133;-60
2023/05/17 03:45:59;;;;;;;17.15;2.63;;;7.70;99.90;;;;;;5071890;28;20029;-60
2023/05/17 03:48:25;;;;;;;15.30;2.70;;;7.70;99.90;;;;;;5071780;28;20035;-59
2023/05/17 03:50:51;;;;;;;15.63;2.25;;;7.70;99.90;;;;;;5054171;28;20459;-61
2023/05/17 03:53:16;;;;;;;17.73;2.95;;;7.70;99.90;;;;;;5054066;28;20043;-61
2023/05/17 03:55:42;;;;;;;15.38;2.50;;;7.70;99.90;;;;;;5070854;28;20044;-59
2023/05/17 03:58:08;;;;;;;20.42;2.90;;;7.70;99.90;;;;;;5071386;28;20499;-59
2023/05/17 04:00:33;;;;;;;18.38;2.97;;;7.70;99.90;;;;;;5071851;28;20472;-59
2023/05/17 04:02:59;;;;;;;12.82;2.30;;;7.60;99.90;;;;;;5071510;28;20594;-61
2023/05/17 04:05:25;;;;;;;16.10;2.58;;;7.60;99.90;;;;;;5071920;28;20104;-59
2023/05/17 04:07:51;;;;;;;18.42;2.83;;;7.60;99.90;;;;;;5071409;28;20055;-60
2023/05/17 04:10:16;;;;;;;17.33;2.28;;;7.60;99.90;;;;;;5071639;28;20481;-61
2023/05/17 04:12:42;;;;;;;18.92;2.40;;;7.50;99.90;;;;;;5071695;28;20029;-60
2023/05/17 04:15:08;;;;;;;14.02;2.50;;;7.50;99.90;;;;;;5071629;28;20387;-59
2023/05/17 04:17:34;;;;;;;15.52;2.60;;;7.50;99.90;;;;;;5071061;28;20040;-60
2023/05/17 04:19:59;;;;;;;19.20;3.50;;;7.50;99.90;;;;;;5053428;28;20554;-61
2023/05/17 04:22:25;;;;;;;13.75;2.65;;;7.50;99.90;;;;;;5071142;28;20080;-60
2023/05/17 04:24:51;;;;;;;21.50;2.75;;;7.50;99.90;;;;;;5071278;28;20102;-60
2023/05/17 04:27:16;;;;;;;16.60;3.05;;;7.60;99.90;;;;;;5070901;28;20038;-60
2023/05/17 04:29:42;;;;;;;22.35;2.83;;;7.50;99.90;;;;;;5053146;28;20044;-60
2023/05/17 04:32:08;;;;;;;17.90;2.80;;;7.40;99.90;;;;;;5071101;28;20044;-61
2023/05/17 04:34:34;;;;;;;16.50;3.05;;;7.50;99.90;;;;;;5071559;28;20496;-58
2023/05/17 04:37:00;;;;;;;22.10;3.53;;;7.50;99.90;;;;;;5086564;28;20051;-60
2023/05/17 04:39:25;;;;;;;14.77;3.22;;;7.50;99.90;;;;;;5071222;28;20044;-61
2023/05/17 04:41:51;;;;;;;15.77;2.95;;;7.50;99.90;;;;;;5071259;28;20527;-61
2023/05/17 04:44:17;;;;;;;19.80;3.70;;;7.50;99.90;;;;;;5070652;28;20039;-60
2023/05/17 04:46:43;;;;;;;20.70;2.92;;;7.50;99.90;;;;;;5070988;28;20036;-62
2023/05/17 04:49:09;;;;;;;26.95;3.42;;;7.40;99.90;;;;;;5070843;28;20072;-60
2023/05/17 04:51:35;;;;;;;19.90;3.65;;;7.40;99.90;;;;;;5071224;28;20036;-61
2023/05/17 04:54:00;;;;;;;15.52;3.67;;;7.50;99.90;;;;;;5070681;28;20040;-60
2023/05/17 04:56:27;;;;;;;23.70;3.72;;;7.50;99.90;;;;;;5052695;28;20496;-59
2023/05/17 04:58:53;;;;;;;17.45;4.72;;;7.50;99.90;;;;;;5070347;28;20187;-60
2023/05/17 05:01:18;;;;;;;17.10;3.30;;;7.60;99.90;;;;;;5070566;28;20127;-58
2023/05/17 05:03:44;;;;;;;18.58;3.03;;;7.60;99.90;;;;;;5070731;28;20043;-59
2023/05/17 05:06:10;;;;;;;18.27;2.80;;;7.60;99.90;;;;;;5070434;28;20116;-59
2023/05/17 05:08:36;;;;;;;20.75;2.83;;;7.60;99.90;;;;;;5052942;28;20080;-58
2023/05/17 05:11:03;;;;;;;17.52;3.25;;;7.60;99.90;;;;;;5070907;28;20514;-60
2023/05/17 05:13:28;;;;;;;18.25;2.88;;;7.70;99.90;;;;;;5070923;28;20499;-58
2023/05/17 05:15:54;;;;;;;17.20;2.85;;;7.70;99.90;;;;;;5070771;28;20159;-58
2023/05/17 05:18:20;;;;;;;14.75;2.95;;;7.80;99.90;;;;;;5070444;28;20480;-60
2023/05/17 05:20:48;;;;;;;19.67;2.83;;;7.90;99.90;;;;;;5070570;28;20075;-61
2023/05/17 05:23:14;;;;;;;16.98;3.00;;;8.00;99.90;;;;;;5070422;28;20040;-61
2023/05/17 05:25:39;;;;;;;13.82;2.70;;;8.10;99.90;;;;;;5070244;28;20028;-60
2023/05/17 05:28:05;;;;;;;17.60;2.92;;;8.20;99.90;;;;;;5069440;28;20037;-59
2023/05/17 05:30:32;;;;;;;12.90;2.60;;;8.20;99.90;;;;;;5070020;28;20063;-61
2023/05/17 05:32:57;;;;;;;12.13;2.38;;;8.30;99.90;;;;;;5070228;28;20068;-62
2023/05/17 05:35:28;;;;;;;15.65;2.45;;;8.40;99.90;;;;;;5070551;28;20079;-60
2023/05/17 05:37:56;;;;;;;11.32;2.38;;;8.50;99.90;;;;;;5070290;28;20072;-61
2023/05/17 05:40:21;;;;;;;14.65;2.47;;;8.50;99.90;;;;;;5070047;28;20663;-60
2023/05/17 05:42:47;;;;;;;13.95;1.92;;;8.50;99.90;;;;;;5070127;28;20518;-61
2023/05/17 05:45:13;;;;;;;12.10;2.05;;;8.60;99.90;;;;;;5070348;28;20094;-59
2023/05/17 05:47:38;;;;;;;13.88;1.95;;;8.70;99.90;;;;;;5070423;28;20037;-60
2023/05/17 05:50:05;;;;;;;10.18;1.80;;;8.80;99.90;;;;;;5070074;28;20083;-62
2023/05/17 05:52:31;;;;;;;10.98;1.98;;;8.80;99.90;;;;;;5070341;28;20106;-62
2023/05/17 05:54:57;;;;;;;9.70;1.67;;;8.80;99.90;;;;;;5070124;28;20036;-59
2023/05/17 05:57:22;;;;;;;12.02;1.90;;;8.90;99.90;;;;;;5069694;28;20472;-58
2023/05/17 05:59:48;;;;;;;8.20;1.70;;;8.90;99.90;;;;;;5070086;28;20041;-60
2023/05/17 06:02:16;;;;;;;13.80;1.98;;;9.00;99.90;;;;;;5069917;28;20040;-60
2023/05/17 06:04:41;;;;;;;14.23;1.92;;;9.00;99.90;;;;;;5069996;28;20056;-62
2023/05/17 06:07:07;;;;;;;8.85;1.27;;;9.10;99.90;;;;;;5070038;28;20119;-59
2023/05/17 06:09:33;;;;;;;11.20;1.77;;;9.00;99.90;;;;;;5070142;28;20090;-60
2023/05/17 06:12:00;;;;;;;11.63;1.90;;;9.00;99.90;;;;;;5069936;28;20480;-62
2023/05/17 06:14:25;;;;;;;12.02;1.58;;;8.90;99.90;;;;;;5069743;28;20350;-58
2023/05/17 06:16:51;;;;;;;11.20;1.60;;;8.90;99.90;;;;;;5070096;28;20056;-60
2023/05/17 06:19:17;;;;;;;16.63;1.58;;;9.00;99.90;;;;;;5073333;28;20033;-61
2023/05/17 06:21:43;;;;;;;9.35;1.45;;;8.90;99.90;;;;;;5073825;28;20040;-61
2023/05/17 06:24:08;;;;;;;10.77;1.88;;;9.00;99.90;;;;;;5073322;28;20037;-60
2023/05/17 06:26:34;;;;;;;11.63;1.77;;;9.00;99.90;;;;;;5073581;28;20087;-60
2023/05/17 06:29:00;;;;;;;11.32;1.73;;;9.10;99.90;;;;;;5070404;28;20049;-61
2023/05/17 06:31:25;;;;;;;13.80;1.63;;;9.20;99.90;;;;;;5073473;28;20047;-58
2023/05/17 06:33:51;;;;;;;9.27;1.73;;;9.30;99.90;;;;;;5055289;28;20419;-61
2023/05/17 06:36:17;;;;;;;10.10;1.98;;;9.40;99.90;;;;;;5073424;28;20086;-60
2023/05/17 06:38:42;;;;;;;9.63;1.60;;;9.50;99.90;;;;;;5073454;28;20056;-60
2023/05/17 06:41:08;;;;;;;12.63;1.83;;;9.50;99.90;;;;;;5073390;28;20155;-59
2023/05/17 06:43:34;;;;;;;8.73;1.98;;;9.70;99.90;;;;;;5073097;28;20082;-62
2023/05/17 06:46:00;;;;;;;11.80;1.73;;;9.80;99.90;;;;;;5055522;28;20036;-60
2023/05/17 06:48:26;;;;;;;17.85;1.60;;;9.80;99.90;;;;;;5055385;28;20040;-59
2023/05/17 06:50:51;;;;;;;10.63;1.77;;;9.90;99.90;;;;;;5073475;28;20113;-61
2023/05/17 06:53:17;;;;;;;6.15;1.33;;;9.90;99.90;;;;;;5073272;28;20036;-61
2023/05/17 06:55:43;;;;;;;15.27;2.03;;;10.00;99.90;;;;;;5055522;28;20037;-61
2023/05/17 06:58:09;;;;;;;11.50;1.98;;;10.10;99.90;;;;;;5054746;28;20029;-60
2023/05/17 07:00:35;;;;;;;6.53;1.33;;;10.20;99.90;;;;;;5072941;28;20045;-62
2023/05/17 07:03:01;;;;;;;13.57;1.83;;;10.20;99.90;;;;;;5073198;28;20029;-61
2023/05/17 07:05:29;;;;;;;10.52;1.70;;;10.20;99.90;;;;;;5073248;28;20036;-60
2023/05/17 07:07:55;;;;;;;15.45;1.92;;;10.30;99.90;;;;;;5072695;28;20044;-62
2023/05/17 07:10:21;;;;;;;12.13;1.80;;;10.30;99.90;;;;;;5054785;28;20047;-61
2023/05/17 07:12:47;;;;;;;9.13;1.55;;;10.40;99.90;;;;;;5072935;28;20388;-60
2023/05/17 07:15:12;;;;;;;10.73;1.52;;;10.40;99.90;;;;;;5073150;28;20067;-60
2023/05/17 07:17:39;;;;;;;11.45;1.83;;;10.40;99.90;;;;;;5072827;28;20042;-62
2023/05/17 07:20:05;;;;;;;9.73;1.80;;;10.50;99.90;;;;;;5072694;28;20032;-58
2023/05/17 07:22:31;;;;;;;8.82;1.88;;;10.50;99.90;;;;;;5072799;28;20046;-60
2023/05/17 07:24:56;;;;;;;12.23;1.88;;;10.60;99.90;;;;;;5054590;28;20442;-60
2023/05/17 07:27:22;;;;;;;16.05;2.20;;;10.60;99.90;;;;;;5072135;28;20102;-61
2023/05/17 07:29:48;;;;;;;12.20;2.10;;;10.60;99.90;;;;;;5069886;28;20062;-63
2023/05/17 07:32:14;;;;;;;12.15;2.17;;;10.60;99.90;;;;;;5070929;28;20055;-61
2023/05/17 07:34:40;;;;;;;11.15;1.65;;;10.60;99.90;;;;;;5034361;28;20128;-62
2023/05/17 07:37:06;;;;;;;15.70;1.95;;;10.70;99.90;;;;;;5052465;28;20120;-60
2023/05/17 07:39:31;;;;;;;14.52;2.10;;;10.70;99.90;;;;;;5052250;28;20045;-61
2023/05/17 07:41:57;;;;;;;14.82;1.83;;;10.70;99.90;;;;;;5055903;28;20041;-61
2023/05/17 07:44:23;;;;;;;14.88;2.00;;;10.70;99.90;;;;;;5052196;28;20120;-61
2023/05/17 07:46:49;;;;;;;13.25;1.70;;;10.80;99.90;;;;;;5052373;28;20124;-60
2023/05/17 07:49:14;;;;;;;11.43;1.80;;;10.80;99.90;;;;;;5034481;28;20481;-60
2023/05/17 07:51:40;;;;;;;15.43;2.42;;;10.80;99.90;;;;;;5034086;28;20124;-61
2023/05/17 07:54:06;;;;;;;9.73;1.90;;;10.80;99.90;;;;;;5051951;28;20032;-60
2023/05/17 07:56:32;;;;;;;9.30;1.65;;;10.80;99.90;;;;;;5051589;28;20056;-61
2023/05/17 07:58:58;;;;;;;11.40;1.60;;;10.80;99.90;;;;;;5051371;28;20048;-60
2023/05/17 08:01:24;;;;;;;11.90;2.10;;;10.90;99.90;;;;;;5051957;28;20044;-61
2023/05/17 08:03:50;;;;;;;11.85;1.92;;;11.00;99.90;;;;;;5034195;28;20491;-59
2023/05/17 08:06:16;;;;;;;13.20;2.42;;;11.00;99.90;;;;;;5051638;28;20037;-62
2023/05/17 08:08:42;;;;;;;10.50;1.70;;;11.00;99.90;;;;;;5051601;28;20155;-61
2023/05/17 08:11:09;;;;;;;11.52;1.73;;;10.90;99.90;;;;;;5051448;28;20052;-61
2023/05/17 08:13:35;;;;;;;12.77;2.08;;;10.80;99.90;;;;;;5033260;28;20116;-60
2023/05/17 08:16:02;;;;;;;16.55;2.17;;;10.80;99.90;;;;;;5051847;28;20052;-60
2023/05/17 08:18:31;;;;;;;14.27;2.33;;;10.90;99.90;;;;;;5051769;28;20045;-60
2023/05/17 08:20:57;;;;;;;11.73;1.95;;;11.10;99.90;;;;;;5051631;28;20522;-61
2023/05/17 08:23:23;;;;;;;11.50;2.17;;;11.20;99.90;;;;;;5051704;28;20076;-61
2023/05/17 08:25:48;;;;;;;15.90;2.45;;;11.20;99.90;;;;;;5051315;28;20044;-60
2023/05/17 08:28:14;;;;;;;10.40;2.13;;;11.20;99.90;;;;;;5051139;28;20032;-59
2023/05/17 08:30:40;;;;;;;11.93;2.60;;;11.20;99.90;;;;;;5052759;28;20055;-59
2023/05/17 08:33:08;;;;;;;8.85;2.20;;;11.20;99.90;;;;;;5071412;28;20099;-61
2023/05/17 08:35:35;;;;;;;13.70;2.40;;;11.40;99.90;;;;;;5071325;28;20040;-60
2023/05/17 08:38:00;;;;;;;14.18;2.20;;;11.50;99.90;;;;;;5064160;28;20501;-60
2023/05/17 08:40:26;;;;;;;12.18;1.80;;;11.70;99.90;;;;;;5065698;28;20032;-61
2023/05/17 08:42:52;;;;;;;13.57;2.00;;;11.70;99.90;;;;;;5071243;28;20542;-61
2023/05/17 08:45:18;;;;;;;12.93;2.05;;;11.70;99.90;;;;;;5071299;28;20032;-61
2023/05/17 08:47:45;;;;;;;9.82;2.00;;;11.80;99.90;;;;;;5071011;28;20051;-60
2023/05/17 08:50:11;;;;;;;16.00;2.53;;;12.00;99.90;;;;;;5071470;28;20058;-60
2023/05/17 08:52:39;;;;;;;11.73;2.50;;;12.10;99.90;;;;;;5070929;28;20113;-61
2023/05/17 08:55:07;;;;;;;12.55;2.10;;;12.00;99.90;;;;;;5070753;28;20047;-60
2023/05/17 08:57:36;;;;;;;16.30;2.17;;;11.80;99.90;;;;;;5070339;28;20040;-60
2023/05/17 09:00:11;;;;;;;12.18;2.08;;;11.70;99.90;;;;;;5070750;28;20037;-60
2023/05/17 09:02:37;;;;;;;13.73;2.35;;;11.70;99.90;;;;;;5070759;28;20084;-58
2023/05/17 09:05:05;;;;;;;13.77;1.92;;;11.90;99.90;;;;;;5070554;28;20595;-62
2023/05/17 09:07:31;;;;;;;10.38;1.88;;;12.10;99.90;;;;;;5070777;28;20036;-59
2023/05/17 09:09:57;;;;;;;13.68;2.35;;;12.30;99.90;;;;;;5052389;28;20028;-60
2023/05/17 09:12:23;;;;;;;9.68;1.95;;;12.40;99.90;;;;;;5070842;28;20468;-61
2023/05/17 09:14:49;;;;;;;12.13;1.92;;;12.70;99.90;;;;;;5070527;28;20044;-60
2023/05/17 09:17:19;;;;;;;13.18;2.30;;;12.70;99.90;;;;;;5070912;28;20119;-61
2023/05/17 09:19:46;;;;;;;10.63;1.83;;;12.70;99.90;;;;;;5070752;28;20087;-60
2023/05/17 09:22:14;;;;;;;12.50;2.25;;;12.60;99.90;;;;;;5070132;28;20044;-60
2023/05/17 09:24:41;;;;;;;12.38;2.28;;;12.60;99.90;;;;;;5052701;28;20123;-59
2023/05/17 09:27:06;;;;;;;13.20;2.15;;;12.70;99.90;;;;;;5070567;28;20123;-61
2023/05/17 09:29:34;;;;;;;10.13;2.00;;;12.90;99.90;;;;;;5069940;28;20254;-60
2023/05/17 09:32:13;;;;;;;9.35;2.10;;;13.00;99.90;;;;;;5061911;28;20802;-60
2023/05/17 09:34:40;;;;;;;14.40;1.95;;;13.10;99.90;;;;;;5050534;28;20044;-60
2023/05/17 09:37:12;;;;;;;11.40;1.90;;;13.20;99.90;;;;;;5050368;28;20361;-61
2023/05/17 09:39:38;;;;;;;10.07;2.10;;;13.10;99.90;;;;;;5049259;28;20055;-59
2023/05/17 09:42:04;;;;;;;9.35;2.35;;;13.00;99.90;;;;;;5054916;28;20045;-60
2023/05/17 09:44:30;;;;;;;12.80;2.10;;;13.00;99.90;;;;;;5050481;28;20059;-60
2023/05/17 09:46:57;;;;;;;11.43;2.63;;;13.20;99.90;;;;;;5055715;28;20041;-61
2023/05/17 09:49:26;;;;;;;10.95;2.00;;;13.40;99.90;;;;;;5050076;28;20037;-59
2023/05/17 09:51:52;;;;;;;10.18;2.03;;;13.60;99.90;;;;;;5051556;28;20519;-62
2023/05/17 09:54:18;;;;;;;11.32;2.10;;;13.60;99.90;;;;;;5054075;28;20049;-60
2023/05/17 09:56:44;;;;;;;10.20;2.25;;;13.70;99.90;;;;;;5054561;28;20043;-59
2023/05/17 09:59:12;;;;;;;11.35;2.00;;;13.70;99.90;;;;;;5054125;28;20416;-60
2023/05/17 10:01:40;;;;;;;8.75;2.10;;;13.70;99.90;;;;;;5052893;28;20048;-59
2023/05/17 10:04:09;;;;;;;11.18;2.25;;;13.70;99.90;;;;;;5055411;28;20128;-59
2023/05/17 10:06:38;;;;;;;13.70;2.85;;;13.80;99.90;;;;;;5054229;28;20107;-61
2023/05/17 10:09:06;;;;;;;14.32;2.92;;;13.90;99.90;;;;;;5053308;28;20029;-60
2023/05/17 10:11:36;;;;;;;14.77;2.70;;;14.00;99.90;;;;;;5054076;28;20564;-59
2023/05/17 10:14:10;;;;;;;10.52;2.35;;;14.10;99.90;;;;;;5054132;28;20408;-60
2023/05/17 10:16:36;;;;;;;;;;;14.10;99.90;;;;;;5054148;28;20079;-60
2023/05/17 10:19:02;;;;;;;10.25;2.30;;;14.00;99.90;;;;;;5054136;28;19927;-60
2023/05/17 10:21:30;;;;;;;11.35;2.65;;;14.10;99.90;;;;;;5053807;28;20041;-60
2023/05/17 10:24:00;;;;;;;10.43;2.28;;;14.30;99.90;;;;;;5053954;28;20043;-61
2023/05/17 10:26:27;;;;;;;12.07;2.78;;;14.40;99.90;;;;;;5053718;28;20396;-61
2023/05/17 10:29:01;;;;;;;12.15;2.33;;;14.40;99.90;;;;;;5032185;28;20053;-61
2023/05/17 10:31:32;;;;;;;15.43;2.63;;;14.30;99.90;;;;;;5053702;28;20057;-61
2023/05/17 10:34:02;;;;;;;15.00;2.80;;;14.10;99.90;;;;;;5053885;28;20040;-59
2023/05/17 10:36:27;;;;;;;14.05;3.20;;;14.10;99.90;;;;;;5053509;28;20036;-61
2023/05/17 10:38:54;;;;;;;9.07;2.20;;;14.20;99.90;;;;;;5053669;28;20047;-60
2023/05/17 10:41:23;;;;;;;15.80;2.55;;;14.20;99.90;;;;;;5053473;28;20108;-60
2023/05/17 10:43:49;;;;;;;15.10;2.70;;;14.30;99.90;;;;;;5053579;28;20091;-59
2023/05/17 10:46:20;;;;;;;11.00;2.83;;;14.30;99.90;;;;;;5053040;28;20048;-61
2023/05/17 10:48:49;;;;;;;12.63;2.78;;;14.60;99.90;;;;;;5053335;28;20044;-60
2023/05/17 10:51:17;;;;;;;12.75;2.40;;;14.80;99.90;;;;;;5053550;28;20029;-59
2023/05/17 10:54:12;;;;;;;14.93;2.88;;;14.90;99.90;;;;;;5053197;28;20506;-60
2023/05/17 10:56:40;;;;;;;10.52;2.38;;;14.80;99.90;;;;;;5053470;28;20439;-60
2023/05/17 10:59:23;;;;;;;11.20;2.95;;;14.70;99.90;;;;;;5053065;28;20045;-61
2023/05/17 11:02:07;;;;;;;12.50;2.53;;;14.60;99.90;;;;;;5051968;28;20049;-61
2023/05/17 11:04:40;;;;;;;14.63;2.33;;;14.80;99.90;;;;;;5052222;28;20658;-60
2023/05/17 11:07:25;;;;;;;10.80;2.50;;;15.20;99.90;;;;;;5053026;28;20496;-59
2023/05/17 11:10:04;;;;;;;9.55;2.67;;;15.40;99.90;;;;;;5051705;28;20167;-62
2023/05/17 11:12:40;;;;;;;11.25;2.47;;;15.20;99.90;;;;;;5053300;28;20043;-62
2023/05/17 11:15:10;;;;;;;11.73;2.53;;;15.00;99.90;;;;;;5052979;28;20091;-61
2023/05/17 11:17:42;;;;;;;10.95;2.42;;;14.90;99.90;;;;;;5053338;28;20361;-61
2023/05/17 11:20:28;;;;;;;12.95;2.65;;;14.80;99.90;;;;;;5052745;28;20495;-60
2023/05/17 11:23:05;;;;;;;12.90;2.70;;;14.80;99.90;;;;;;5038264;28;20180;-60
2023/05/17 11:25:39;;;;;;;12.85;2.55;;;14.80;99.90;;;;;;5038348;28;20124;-59
2023/05/17 11:28:31;;;;;;;8.10;2.45;;;14.70;99.90;;;;;;5037024;28;20041;-61
2023/05/17 11:31:00;;;;;;;12.20;2.55;;;14.70;99.90;;;;;;5069608;28;20522;-60
2023/05/17 11:33:43;;;;;;;11.32;2.35;;;14.80;99.90;;;;;;5072809;28;20037;-61
2023/05/17 11:36:27;;;;;;;14.90;2.10;;;15.20;99.90;;;;;;5072477;28;20044;-60
2023/05/17 11:39:12;;;;;;;11.88;2.30;;;15.60;99.90;;;;;;5072150;28;20036;-60
2023/05/17 11:41:46;;;;;;;9.95;2.10;;;15.40;98.90;;;;;;5072429;28;20551;-61
2023/05/17 11:44:12;;;;;;;11.30;2.10;;;15.20;99.20;;;;;;5038755;28;20127;-62
2023/05/17 11:46:39;;;;;;;10.85;2.22;;;15.30;99.40;;;;;;5054563;28;20041;-61
2023/05/17 11:49:08;;;;;;;11.20;2.30;;;15.70;99.10;;;;;;5072550;28;20040;-60
2023/05/17 11:51:34;;;;;;;7.70;2.10;;;16.00;98.10;;;;;;5072211;28;20234;-62
2023/05/17 11:54:03;;;;;;;9.70;2.05;;;15.90;97.80;;;;;;5072040;28;20033;-60
2023/05/17 11:56:39;;;;;;;9.68;2.30;;;15.70;97.80;;;;;;5054047;28;20344;-61
2023/05/17 11:59:05;;;;;;;11.25;2.05;;;15.60;97.00;;;;;;5071825;28;20032;-60
2023/05/17 12:01:45;;;;;;;9.32;1.90;;;15.40;97.90;;;;;;5072107;28;20052;-60
2023/05/17 12:04:10;;;;;;;9.27;1.90;;;15.60;97.60;;;;;;5053842;28;20044;-60
2023/05/17 12:06:37;;;;;;;9.18;2.22;;;15.90;98.00;;;;;;5053933;28;20033;-61
2023/05/17 12:09:04;;;;;;;8.88;1.60;;;16.30;97.80;;;;;;5071874;28;20040;-60
2023/05/17 12:11:30;;;;;;;8.10;2.28;;;16.50;97.80;;;;;;5071843;28;20032;-61
2023/05/17 12:13:56;;;;;;;11.10;2.75;;;16.40;97.40;;;;;;5071746;28;20037;-61
2023/05/17 12:16:23;;;;;;;9.98;1.98;;;16.30;97.50;;;;;;5070734;28;20048;-60
2023/05/17 12:18:50;;;;;;;10.00;2.22;;;16.30;97.10;;;;;;5037298;28;20126;-60
2023/05/17 12:21:17;;;;;;;12.35;2.05;;;16.10;97.00;;;;;;5071381;28;20033;-63
2023/05/17 12:23:45;;;;;;;9.80;2.40;;;16.00;96.60;;;;;;5036729;28;20098;-61
2023/05/17 12:26:11;;;;;;;8.30;2.28;;;15.80;96.70;;;;;;5071674;28;20487;-62
2023/05/17 12:28:41;;;;;;;8.15;1.73;;;15.70;96.80;;;;;;5071039;28;20032;-60
2023/05/17 12:31:14;;;;;;;9.02;1.90;;;15.70;96.80;;;;;;5061470;28;20055;-61
2023/05/17 12:33:42;;;;;;;10.52;1.88;;;16.00;96.80;;;;;;5051095;28;20064;-61
2023/05/17 12:36:13;;;;;;;6.97;1.63;;;16.30;96.60;;;;;;5127161;27;1261839;-58
2023/05/17 12:38:41;;;;;;;10.57;2.03;;;16.50;96.40;;;;;;5149443;27;20118;-61
2023/05/17 12:41:12;;;;;;;7.15;1.63;;;16.70;96.50;;;;;;5149495;27;20064;-60
2023/05/17 12:43:39;;;;;;;7.75;1.88;;;16.60;96.10;;;;;;5149354;27;20101;-60
2023/05/17 12:46:11;;;;;;;8.00;1.67;;;16.40;96.60;;;;;;5149713;27;20531;-58